sensor_id;sensor_type;location;lat;lon;timestamp;temperature;humidity
41220;DHT22;26951;47.338;9.196;2022-11-15T00:01:51;4.20;68.10
41220;DHT22;26951;47.338;9.196;2022-11-15T00:04:35;4.10;67.70
41220;DHT22;26951;47.338;9.196;2022-11-15T00:07:19;4.10;67.30
41220;DHT22;26951;47.338;9.196;2022-11-15T00:10:03;4.00;67.50
41220;DHT22;26951;47.338;9.196;2022-11-15T00:12:48;4.00;68.20
41220;DHT22;26951;47.338;9.196;2022-11-15T00:15:35;4.00;69.40
41220;DHT22;26951;47.338;9.196;2022-11-15T00:18:20;4.00;69.40
41220;DHT22;26951;47.338;9.196;2022-11-15T00:21:07;3.90;69.10
41220;DHT22;26951;47.338;9.196;2022-11-15T00:23:51;3.90;68.70
41220;DHT22;26951;47.338;9.196;2022-11-15T00:26:35;3.90;69.00
41220;DHT22;26951;47.338;9.196;2022-11-15T00:29:19;3.90;69.60
41220;DHT22;26951;47.338;9.196;2022-11-15T00:32:04;3.90;70.10
41220;DHT22;26951;47.338;9.196;2022-11-15T00:34:49;3.80;70.10
41220;DHT22;26951;47.338;9.196;2022-11-15T00:37:33;3.90;70.80
41220;DHT22;26951;47.338;9.196;2022-11-15T00:40:17;3.90;70.20
41220;DHT22;26951;47.338;9.196;2022-11-15T00:43:01;3.80;69.60
41220;DHT22;26951;47.338;9.196;2022-11-15T00:45:46;3.80;69.60
41220;DHT22;26951;47.338;9.196;2022-11-15T00:48:30;3.80;69.30
41220;DHT22;26951;47.338;9.196;2022-11-15T00:51:15;3.80;70.10
41220;DHT22;26951;47.338;9.196;2022-11-15T00:53:59;3.80;70.10
41220;DHT22;26951;47.338;9.196;2022-11-15T00:56:43;3.80;70.10
41220;DHT22;26951;47.338;9.196;2022-11-15T00:59:27;3.70;70.30
41220;DHT22;26951;47.338;9.196;2022-11-15T01:02:11;3.80;71.10
41220;DHT22;26951;47.338;9.196;2022-11-15T01:04:56;3.80;70.90
41220;DHT22;26951;47.338;9.196;2022-11-15T01:07:40;3.70;70.60
41220;DHT22;26951;47.338;9.196;2022-11-15T01:10:24;3.70;72.10
41220;DHT22;26951;47.338;9.196;2022-11-15T01:13:09;3.80;72.50
41220;DHT22;26951;47.338;9.196;2022-11-15T01:15:54;3.80;71.50
41220;DHT22;26951;47.338;9.196;2022-11-15T01:18:38;3.80;70.20
41220;DHT22;26951;47.338;9.196;2022-11-15T01:21:22;3.70;70.00
41220;DHT22;26951;47.338;9.196;2022-11-15T01:24:07;3.70;72.40
41220;DHT22;26951;47.338;9.196;2022-11-15T01:26:53;3.70;73.30
41220;DHT22;26951;47.338;9.196;2022-11-15T01:29:37;3.80;74.00
41220;DHT22;26951;47.338;9.196;2022-11-15T01:32:21;3.80;74.70
41220;DHT22;26951;47.338;9.196;2022-11-15T01:35:05;3.90;74.80
41220;DHT22;26951;47.338;9.196;2022-11-15T01:37:49;4.00;75.60
41220;DHT22;26951;47.338;9.196;2022-11-15T01:40:34;4.00;76.00
41220;DHT22;26951;47.338;9.196;2022-11-15T01:43:25;4.10;76.20
41220;DHT22;26951;47.338;9.196;2022-11-15T01:46:35;4.20;76.10
41220;DHT22;26951;47.338;9.196;2022-11-15T01:49:21;4.20;75.90
41220;DHT22;26951;47.338;9.196;2022-11-15T01:52:09;4.30;75.90
41220;DHT22;26951;47.338;9.196;2022-11-15T01:57:47;4.30;74.70
41220;DHT22;26951;47.338;9.196;2022-11-15T02:04:30;4.20;74.20
41220;DHT22;26951;47.338;9.196;2022-11-15T02:07:17;4.20;73.90
41220;DHT22;26951;47.338;9.196;2022-11-15T02:10:08;4.20;75.10
41220;DHT22;26951;47.338;9.196;2022-11-15T02:12:53;4.20;75.80
41220;DHT22;26951;47.338;9.196;2022-11-15T02:15:56;4.30;75.60
41220;DHT22;26951;47.338;9.196;2022-11-15T02:18:49;4.30;75.20
41220;DHT22;26951;47.338;9.196;2022-11-15T02:34:00;4.40;75.50
41220;DHT22;26951;47.338;9.196;2022-11-15T02:40:06;4.40;76.00
41220;DHT22;26951;47.338;9.196;2022-11-15T02:42:55;4.40;75.50
41220;DHT22;26951;47.338;9.196;2022-11-15T02:46:14;4.40;75.90
41220;DHT22;26951;47.338;9.196;2022-11-15T02:49:00;4.40;73.90
41220;DHT22;26951;47.338;9.196;2022-11-15T02:51:46;4.40;73.10
41220;DHT22;26951;47.338;9.196;2022-11-15T02:54:33;4.30;73.00
41220;DHT22;26951;47.338;9.196;2022-11-15T02:57:23;4.30;73.60
41220;DHT22;26951;47.338;9.196;2022-11-15T03:00:15;4.30;72.50
41220;DHT22;26951;47.338;9.196;2022-11-15T03:07:18;4.20;70.60
41220;DHT22;26951;47.338;9.196;2022-11-15T03:13:18;4.10;71.80
41220;DHT22;26951;47.338;9.196;2022-11-15T03:22:15;4.10;70.40
41220;DHT22;26951;47.338;9.196;2022-11-15T03:25:04;4.00;70.40
41220;DHT22;26951;47.338;9.196;2022-11-15T03:27:53;4.00;70.30
41220;DHT22;26951;47.338;9.196;2022-11-15T03:30:39;4.00;70.20
41220;DHT22;26951;47.338;9.196;2022-11-15T03:33:25;3.90;69.90
41220;DHT22;26951;47.338;9.196;2022-11-15T03:36:10;3.90;69.40
41220;DHT22;26951;47.338;9.196;2022-11-15T03:38:57;3.80;69.10
41220;DHT22;26951;47.338;9.196;2022-11-15T03:42:42;3.70;69.20
41220;DHT22;26951;47.338;9.196;2022-11-15T03:45:18;3.70;68.80
41220;DHT22;26951;47.338;9.196;2022-11-15T03:48:14;3.70;69.40
41220;DHT22;26951;47.338;9.196;2022-11-15T03:51:00;3.60;69.30
41220;DHT22;26951;47.338;9.196;2022-11-15T03:53:46;3.60;69.30
41220;DHT22;26951;47.338;9.196;2022-11-15T03:56:30;3.50;69.60
41220;DHT22;26951;47.338;9.196;2022-11-15T03:59:14;3.50;69.80
41220;DHT22;26951;47.338;9.196;2022-11-15T04:01:58;3.50;69.80
41220;DHT22;26951;47.338;9.196;2022-11-15T04:04:42;3.40;70.60
41220;DHT22;26951;47.338;9.196;2022-11-15T04:07:26;3.40;70.50
41220;DHT22;26951;47.338;9.196;2022-11-15T04:10:11;3.50;70.50
41220;DHT22;26951;47.338;9.196;2022-11-15T04:12:55;3.40;70.20
41220;DHT22;26951;47.338;9.196;2022-11-15T04:15:40;3.40;71.80
41220;DHT22;26951;47.338;9.196;2022-11-15T04:18:40;3.40;72.50
41220;DHT22;26951;47.338;9.196;2022-11-15T04:21:24;3.40;73.20
41220;DHT22;26951;47.338;9.196;2022-11-15T04:24:27;3.40;72.90
41220;DHT22;26951;47.338;9.196;2022-11-15T04:27:11;3.40;72.30
41220;DHT22;26951;47.338;9.196;2022-11-15T04:29:57;3.50;72.90
41220;DHT22;26951;47.338;9.196;2022-11-15T04:32:41;3.50;72.50
41220;DHT22;26951;47.338;9.196;2022-11-15T04:35:25;3.50;72.90
41220;DHT22;26951;47.338;9.196;2022-11-15T04:38:10;3.50;73.00
41220;DHT22;26951;47.338;9.196;2022-11-15T04:40:54;3.60;72.90
41220;DHT22;26951;47.338;9.196;2022-11-15T04:43:39;3.60;72.00
41220;DHT22;26951;47.338;9.196;2022-11-15T04:46:23;3.60;71.30
41220;DHT22;26951;47.338;9.196;2022-11-15T04:49:07;3.50;71.00
41220;DHT22;26951;47.338;9.196;2022-11-15T04:51:51;3.50;70.50
41220;DHT22;26951;47.338;9.196;2022-11-15T04:54:35;3.50;71.20
41220;DHT22;26951;47.338;9.196;2022-11-15T04:57:20;3.50;71.40
41220;DHT22;26951;47.338;9.196;2022-11-15T05:00:06;3.50;70.10
41220;DHT22;26951;47.338;9.196;2022-11-15T05:02:51;3.40;69.80
41220;DHT22;26951;47.338;9.196;2022-11-15T05:05:54;3.40;71.40
41220;DHT22;26951;47.338;9.196;2022-11-15T05:08:38;3.40;71.80
41220;DHT22;26951;47.338;9.196;2022-11-15T05:11:22;3.40;71.60
41220;DHT22;26951;47.338;9.196;2022-11-15T05:14:06;3.40;70.70
41220;DHT22;26951;47.338;9.196;2022-11-15T05:16:51;3.40;70.50
41220;DHT22;26951;47.338;9.196;2022-11-15T05:19:34;3.30;69.60
41220;DHT22;26951;47.338;9.196;2022-11-15T05:22:19;3.30;69.60
41220;DHT22;26951;47.338;9.196;2022-11-15T05:25:04;3.30;69.30
41220;DHT22;26951;47.338;9.196;2022-11-15T05:27:48;3.20;68.70
41220;DHT22;26951;47.338;9.196;2022-11-15T05:30:32;3.20;68.30
41220;DHT22;26951;47.338;9.196;2022-11-15T05:33:17;3.10;68.50
41220;DHT22;26951;47.338;9.196;2022-11-15T05:36:05;3.10;69.90
41220;DHT22;26951;47.338;9.196;2022-11-15T05:38:50;3.10;69.70
41220;DHT22;26951;47.338;9.196;2022-11-15T05:41:42;3.10;69.40
41220;DHT22;26951;47.338;9.196;2022-11-15T05:44:27;3.00;69.40
41220;DHT22;26951;47.338;9.196;2022-11-15T05:47:17;3.00;69.40
41220;DHT22;26951;47.338;9.196;2022-11-15T05:50:04;3.00;69.90
41220;DHT22;26951;47.338;9.196;2022-11-15T05:52:48;3.00;70.90
41220;DHT22;26951;47.338;9.196;2022-11-15T05:55:33;3.00;71.40
41220;DHT22;26951;47.338;9.196;2022-11-15T05:58:19;2.90;70.60
41220;DHT22;26951;47.338;9.196;2022-11-15T06:01:04;2.90;69.90
41220;DHT22;26951;47.338;9.196;2022-11-15T06:03:48;2.90;70.00
41220;DHT22;26951;47.338;9.196;2022-11-15T06:06:33;2.80;70.60
41220;DHT22;26951;47.338;9.196;2022-11-15T06:09:17;2.80;71.60
41220;DHT22;26951;47.338;9.196;2022-11-15T06:12:01;2.80;72.70
41220;DHT22;26951;47.338;9.196;2022-11-15T06:14:45;2.90;72.90
41220;DHT22;26951;47.338;9.196;2022-11-15T06:17:29;2.90;72.20
41220;DHT22;26951;47.338;9.196;2022-11-15T06:20:13;3.00;71.30
41220;DHT22;26951;47.338;9.196;2022-11-15T06:23:02;2.90;70.60
41220;DHT22;26951;47.338;9.196;2022-11-15T06:25:47;2.90;70.20
41220;DHT22;26951;47.338;9.196;2022-11-15T06:28:32;2.90;70.00
41220;DHT22;26951;47.338;9.196;2022-11-15T06:31:16;2.90;71.00
41220;DHT22;26951;47.338;9.196;2022-11-15T06:34:00;2.90;71.70
41220;DHT22;26951;47.338;9.196;2022-11-15T06:36:44;2.90;72.10
41220;DHT22;26951;47.338;9.196;2022-11-15T06:39:28;2.90;71.60
41220;DHT22;26951;47.338;9.196;2022-11-15T06:42:12;2.90;71.00
41220;DHT22;26951;47.338;9.196;2022-11-15T06:44:56;2.90;70.80
41220;DHT22;26951;47.338;9.196;2022-11-15T06:47:45;2.90;71.00
41220;DHT22;26951;47.338;9.196;2022-11-15T06:50:30;2.90;70.80
41220;DHT22;26951;47.338;9.196;2022-11-15T06:53:14;2.90;70.60
41220;DHT22;26951;47.338;9.196;2022-11-15T06:56:02;2.90;70.80
41220;DHT22;26951;47.338;9.196;2022-11-15T06:58:46;2.90;70.80
41220;DHT22;26951;47.338;9.196;2022-11-15T07:01:30;2.90;71.00
41220;DHT22;26951;47.338;9.196;2022-11-15T07:04:14;2.90;71.40
41220;DHT22;26951;47.338;9.196;2022-11-15T07:06:59;2.90;71.60
41220;DHT22;26951;47.338;9.196;2022-11-15T07:09:43;3.00;72.40
41220;DHT22;26951;47.338;9.196;2022-11-15T07:12:27;2.90;72.60
41220;DHT22;26951;47.338;9.196;2022-11-15T07:15:11;2.90;72.70
41220;DHT22;26951;47.338;9.196;2022-11-15T07:17:55;2.90;72.80
41220;DHT22;26951;47.338;9.196;2022-11-15T07:20:39;2.90;72.90
41220;DHT22;26951;47.338;9.196;2022-11-15T07:23:23;2.90;73.00
41220;DHT22;26951;47.338;9.196;2022-11-15T07:26:08;2.90;73.30
41220;DHT22;26951;47.338;9.196;2022-11-15T07:28:52;3.00;74.00
41220;DHT22;26951;47.338;9.196;2022-11-15T07:31:36;3.00;74.30
41220;DHT22;26951;47.338;9.196;2022-11-15T07:34:21;3.00;74.70
41220;DHT22;26951;47.338;9.196;2022-11-15T07:37:05;3.00;75.80
41220;DHT22;26951;47.338;9.196;2022-11-15T07:39:49;3.10;76.90
41220;DHT22;26951;47.338;9.196;2022-11-15T07:42:33;3.20;76.80
41220;DHT22;26951;47.338;9.196;2022-11-15T07:45:44;3.20;76.80
41220;DHT22;26951;47.338;9.196;2022-11-15T07:48:28;3.30;76.80
41220;DHT22;26951;47.338;9.196;2022-11-15T07:51:14;3.30;76.90
41220;DHT22;26951;47.338;9.196;2022-11-15T07:53:58;3.40;77.80
41220;DHT22;26951;47.338;9.196;2022-11-15T07:56:43;3.40;78.60
41220;DHT22;26951;47.338;9.196;2022-11-15T07:59:27;3.50;79.10
41220;DHT22;26951;47.338;9.196;2022-11-15T08:02:11;3.60;80.10
41220;DHT22;26951;47.338;9.196;2022-11-15T08:04:55;3.70;81.30
41220;DHT22;26951;47.338;9.196;2022-11-15T08:07:39;3.80;82.40
41220;DHT22;26951;47.338;9.196;2022-11-15T08:10:25;3.90;83.30
41220;DHT22;26951;47.338;9.196;2022-11-15T08:13:10;4.10;84.10
41220;DHT22;26951;47.338;9.196;2022-11-15T08:16:01;4.20;84.90
41220;DHT22;26951;47.338;9.196;2022-11-15T08:18:46;4.40;86.10
41220;DHT22;26951;47.338;9.196;2022-11-15T08:21:30;4.50;87.00
41220;DHT22;26951;47.338;9.196;2022-11-15T08:24:15;4.70;87.80
41220;DHT22;26951;47.338;9.196;2022-11-15T08:26:59;4.90;89.20
41220;DHT22;26951;47.338;9.196;2022-11-15T08:29:44;5.10;90.20
41220;DHT22;26951;47.338;9.196;2022-11-15T08:32:29;5.40;91.00
41220;DHT22;26951;47.338;9.196;2022-11-15T08:35:14;5.70;92.00
41220;DHT22;26951;47.338;9.196;2022-11-15T08:37:58;6.10;92.70
41220;DHT22;26951;47.338;9.196;2022-11-15T08:40:42;6.30;92.70
41220;DHT22;26951;47.338;9.196;2022-11-15T08:43:26;6.50;92.50
41220;DHT22;26951;47.338;9.196;2022-11-15T08:46:12;6.70;92.80
41220;DHT22;26951;47.338;9.196;2022-11-15T08:48:57;6.80;92.70
41220;DHT22;26951;47.338;9.196;2022-11-15T08:51:42;7.00;92.20
41220;DHT22;26951;47.338;9.196;2022-11-15T08:54:25;7.10;90.80
41220;DHT22;26951;47.338;9.196;2022-11-15T08:57:10;7.20;89.50
41220;DHT22;26951;47.338;9.196;2022-11-15T08:59:54;7.50;90.30
41220;DHT22;26951;47.338;9.196;2022-11-15T09:02:39;7.90;90.40
41220;DHT22;26951;47.338;9.196;2022-11-15T09:05:23;8.40;90.20
41220;DHT22;26951;47.338;9.196;2022-11-15T09:08:07;8.80;89.00
41220;DHT22;26951;47.338;9.196;2022-11-15T09:10:51;9.20;83.10
41220;DHT22;26951;47.338;9.196;2022-11-15T09:13:36;9.70;84.20
41220;DHT22;26951;47.338;9.196;2022-11-15T09:16:20;10.00;80.80
41220;DHT22;26951;47.338;9.196;2022-11-15T09:19:05;10.10;77.20
41220;DHT22;26951;47.338;9.196;2022-11-15T09:21:49;10.30;77.00
41220;DHT22;26951;47.338;9.196;2022-11-15T09:24:34;10.50;75.80
41220;DHT22;26951;47.338;9.196;2022-11-15T09:27:18;10.60;71.90
41220;DHT22;26951;47.338;9.196;2022-11-15T09:30:03;10.80;70.00
41220;DHT22;26951;47.338;9.196;2022-11-15T09:32:47;10.90;68.70
41220;DHT22;26951;47.338;9.196;2022-11-15T09:35:32;11.10;70.50
41220;DHT22;26951;47.338;9.196;2022-11-15T09:38:16;11.30;69.70
41220;DHT22;26951;47.338;9.196;2022-11-15T09:44:12;11.50;68.80
41220;DHT22;26951;47.338;9.196;2022-11-15T09:50:11;12.00;61.40
41220;DHT22;26951;47.338;9.196;2022-11-15T09:52:55;12.40;65.30
41220;DHT22;26951;47.338;9.196;2022-11-15T09:55:52;12.70;64.50
41220;DHT22;26951;47.338;9.196;2022-11-15T09:59:01;13.30;61.80
41220;DHT22;26951;47.338;9.196;2022-11-15T10:02:20;13.70;60.20
41220;DHT22;26951;47.338;9.196;2022-11-15T10:05:11;14.00;53.40
41220;DHT22;26951;47.338;9.196;2022-11-15T10:10:51;14.20;52.70
41220;DHT22;26951;47.338;9.196;2022-11-15T10:13:41;14.20;51.30
41220;DHT22;26951;47.338;9.196;2022-11-15T10:16:48;14.10;48.10
41220;DHT22;26951;47.338;9.196;2022-11-15T10:22:54;13.80;49.80
41220;DHT22;26951;47.338;9.196;2022-11-15T10:25:40;13.60;48.80
41220;DHT22;26951;47.338;9.196;2022-11-15T10:28:27;13.50;49.90
41220;DHT22;26951;47.338;9.196;2022-11-15T10:31:27;13.40;50.00
41220;DHT22;26951;47.338;9.196;2022-11-15T10:34:14;13.30;49.70
41220;DHT22;26951;47.338;9.196;2022-11-15T10:37:00;13.20;51.00
41220;DHT22;26951;47.338;9.196;2022-11-15T10:40:15;13.10;48.30
41220;DHT22;26951;47.338;9.196;2022-11-15T10:45:53;13.00;49.10
41220;DHT22;26951;47.338;9.196;2022-11-15T10:48:37;12.90;50.80
41220;DHT22;26951;47.338;9.196;2022-11-15T10:51:27;12.80;50.90
41220;DHT22;26951;47.338;9.196;2022-11-15T10:55:04;12.80;50.80
41220;DHT22;26951;47.338;9.196;2022-11-15T10:57:28;12.70;51.70
41220;DHT22;26951;47.338;9.196;2022-11-15T11:03:06;12.80;52.50
41220;DHT22;26951;47.338;9.196;2022-11-15T11:06:08;12.80;53.50
41220;DHT22;26951;47.338;9.196;2022-11-15T11:09:03;12.80;54.30
41220;DHT22;26951;47.338;9.196;2022-11-15T11:11:51;12.80;50.60
41220;DHT22;26951;47.338;9.196;2022-11-15T11:14:38;12.70;51.20
41220;DHT22;26951;47.338;9.196;2022-11-15T11:17:43;12.70;51.20
41220;DHT22;26951;47.338;9.196;2022-11-15T11:20:45;12.60;52.20
41220;DHT22;26951;47.338;9.196;2022-11-15T11:23:41;12.60;53.70
41220;DHT22;26951;47.338;9.196;2022-11-15T11:32:49;12.60;51.30
41220;DHT22;26951;47.338;9.196;2022-11-15T11:35:58;12.60;52.50
41220;DHT22;26951;47.338;9.196;2022-11-15T11:39:02;12.60;52.20
41220;DHT22;26951;47.338;9.196;2022-11-15T11:45:31;12.50;52.30
41220;DHT22;26951;47.338;9.196;2022-11-15T11:51:36;12.40;52.00
41220;DHT22;26951;47.338;9.196;2022-11-15T11:54:31;12.40;53.20
41220;DHT22;26951;47.338;9.196;2022-11-15T12:00:21;12.40;54.10
41220;DHT22;26951;47.338;9.196;2022-11-15T12:03:12;12.40;53.80
41220;DHT22;26951;47.338;9.196;2022-11-15T12:06:51;12.40;51.30
41220;DHT22;26951;47.338;9.196;2022-11-15T12:09:33;12.40;53.20
41220;DHT22;26951;47.338;9.196;2022-11-15T12:17:55;12.30;51.10
41220;DHT22;26951;47.338;9.196;2022-11-15T12:20:57;12.30;51.20
41220;DHT22;26951;47.338;9.196;2022-11-15T12:23:53;12.30;51.10
41220;DHT22;26951;47.338;9.196;2022-11-15T12:26:48;12.30;52.10
41220;DHT22;26951;47.338;9.196;2022-11-15T12:29:47;12.20;50.60
41220;DHT22;26951;47.338;9.196;2022-11-15T12:32:37;12.20;51.90
41220;DHT22;26951;47.338;9.196;2022-11-15T12:35:35;12.20;51.70
41220;DHT22;26951;47.338;9.196;2022-11-15T12:47:33;12.20;50.90
41220;DHT22;26951;47.338;9.196;2022-11-15T12:50:52;12.20;52.40
41220;DHT22;26951;47.338;9.196;2022-11-15T12:53:37;12.20;52.90
41220;DHT22;26951;47.338;9.196;2022-11-15T12:56:22;12.20;51.80
41220;DHT22;26951;47.338;9.196;2022-11-15T12:59:07;12.20;51.60
41220;DHT22;26951;47.338;9.196;2022-11-15T13:01:56;12.20;51.60
41220;DHT22;26951;47.338;9.196;2022-11-15T13:04:41;12.20;51.20
41220;DHT22;26951;47.338;9.196;2022-11-15T13:10:33;12.20;53.80
41220;DHT22;26951;47.338;9.196;2022-11-15T13:13:44;12.20;53.40
41220;DHT22;26951;47.338;9.196;2022-11-15T13:16:28;12.20;52.90
41220;DHT22;26951;47.338;9.196;2022-11-15T13:19:14;12.20;54.30
41220;DHT22;26951;47.338;9.196;2022-11-15T13:21:58;12.20;52.30
41220;DHT22;26951;47.338;9.196;2022-11-15T13:25:01;12.20;50.70
41220;DHT22;26951;47.338;9.196;2022-11-15T13:27:48;12.20;54.70
41220;DHT22;26951;47.338;9.196;2022-11-15T13:30:33;12.20;53.80
41220;DHT22;26951;47.338;9.196;2022-11-15T13:33:24;12.20;53.90
41220;DHT22;26951;47.338;9.196;2022-11-15T13:36:15;12.10;52.50
41220;DHT22;26951;47.338;9.196;2022-11-15T13:39:06;12.10;55.10
41220;DHT22;26951;47.338;9.196;2022-11-15T13:41:51;12.20;57.10
41220;DHT22;26951;47.338;9.196;2022-11-15T13:44:35;12.20;57.80
41220;DHT22;26951;47.338;9.196;2022-11-15T13:47:20;12.20;57.80
41220;DHT22;26951;47.338;9.196;2022-11-15T13:50:04;12.20;57.70
41220;DHT22;26951;47.338;9.196;2022-11-15T13:52:49;12.20;58.00
41220;DHT22;26951;47.338;9.196;2022-11-15T13:55:34;12.20;59.50
41220;DHT22;26951;47.338;9.196;2022-11-15T13:58:19;12.20;60.40
41220;DHT22;26951;47.338;9.196;2022-11-15T14:01:04;12.20;59.70
41220;DHT22;26951;47.338;9.196;2022-11-15T14:03:55;12.20;59.70
41220;DHT22;26951;47.338;9.196;2022-11-15T14:06:51;12.20;60.70
41220;DHT22;26951;47.338;9.196;2022-11-15T14:09:36;12.20;60.90
41220;DHT22;26951;47.338;9.196;2022-11-15T14:18:05;12.10;61.90
41220;DHT22;26951;47.338;9.196;2022-11-15T14:20:49;12.10;62.20
41220;DHT22;26951;47.338;9.196;2022-11-15T14:23:48;12.10;62.30
41220;DHT22;26951;47.338;9.196;2022-11-15T14:26:35;12.00;62.30
41220;DHT22;26951;47.338;9.196;2022-11-15T14:29:26;12.00;62.40
41220;DHT22;26951;47.338;9.196;2022-11-15T14:32:14;11.90;62.70
41220;DHT22;26951;47.338;9.196;2022-11-15T14:35:01;11.90;61.50
41220;DHT22;26951;47.338;9.196;2022-11-15T14:37:46;11.80;60.80
41220;DHT22;26951;47.338;9.196;2022-11-15T14:40:30;11.80;60.90
41220;DHT22;26951;47.338;9.196;2022-11-15T14:43:15;11.80;61.10
41220;DHT22;26951;47.338;9.196;2022-11-15T14:45:59;11.70;61.50
41220;DHT22;26951;47.338;9.196;2022-11-15T14:48:44;11.70;62.40
41220;DHT22;26951;47.338;9.196;2022-11-15T14:51:28;11.70;63.10
41220;DHT22;26951;47.338;9.196;2022-11-15T14:54:13;11.60;63.40
41220;DHT22;26951;47.338;9.196;2022-11-15T14:56:57;11.60;63.30
41220;DHT22;26951;47.338;9.196;2022-11-15T14:59:41;11.50;62.70
41220;DHT22;26951;47.338;9.196;2022-11-15T15:02:26;11.50;62.80
41220;DHT22;26951;47.338;9.196;2022-11-15T15:05:16;11.40;61.90
41220;DHT22;26951;47.338;9.196;2022-11-15T15:08:01;11.40;61.70
41220;DHT22;26951;47.338;9.196;2022-11-15T15:10:45;11.30;61.80
41220;DHT22;26951;47.338;9.196;2022-11-15T15:13:29;11.20;61.90
41220;DHT22;26951;47.338;9.196;2022-11-15T15:16:14;11.20;61.80
41220;DHT22;26951;47.338;9.196;2022-11-15T15:18:58;11.10;61.50
41220;DHT22;26951;47.338;9.196;2022-11-15T15:21:42;11.10;61.40
41220;DHT22;26951;47.338;9.196;2022-11-15T15:24:26;11.10;61.40
41220;DHT22;26951;47.338;9.196;2022-11-15T15:27:10;11.00;62.00
41220;DHT22;26951;47.338;9.196;2022-11-15T15:29:55;10.90;62.00
41220;DHT22;26951;47.338;9.196;2022-11-15T15:32:39;10.90;61.30
41220;DHT22;26951;47.338;9.196;2022-11-15T15:35:29;10.80;60.90
41220;DHT22;26951;47.338;9.196;2022-11-15T15:38:14;10.70;60.60
41220;DHT22;26951;47.338;9.196;2022-11-15T15:40:59;10.70;60.40
41220;DHT22;26951;47.338;9.196;2022-11-15T15:43:45;10.60;60.10
41220;DHT22;26951;47.338;9.196;2022-11-15T15:46:30;10.60;60.30
41220;DHT22;26951;47.338;9.196;2022-11-15T15:49:14;10.50;60.50
41220;DHT22;26951;47.338;9.196;2022-11-15T15:51:58;10.50;61.10
41220;DHT22;26951;47.338;9.196;2022-11-15T15:54:42;10.50;61.40
41220;DHT22;26951;47.338;9.196;2022-11-15T15:57:26;10.40;61.50
41220;DHT22;26951;47.338;9.196;2022-11-15T16:00:11;10.30;61.70
41220;DHT22;26951;47.338;9.196;2022-11-15T16:02:56;10.20;61.70
41220;DHT22;26951;47.338;9.196;2022-11-15T16:05:40;10.20;61.20
41220;DHT22;26951;47.338;9.196;2022-11-15T16:08:24;10.10;60.30
41220;DHT22;26951;47.338;9.196;2022-11-15T16:11:11;10.10;60.60
41220;DHT22;26951;47.338;9.196;2022-11-15T16:13:55;9.90;61.00
41220;DHT22;26951;47.338;9.196;2022-11-15T16:16:39;9.80;60.50
41220;DHT22;26951;47.338;9.196;2022-11-15T16:19:23;9.80;60.00
41220;DHT22;26951;47.338;9.196;2022-11-15T16:22:07;9.70;59.80
41220;DHT22;26951;47.338;9.196;2022-11-15T16:24:51;9.60;59.90
41220;DHT22;26951;47.338;9.196;2022-11-15T16:27:36;9.60;59.40
41220;DHT22;26951;47.338;9.196;2022-11-15T16:30:23;9.50;59.60
41220;DHT22;26951;47.338;9.196;2022-11-15T16:33:07;9.50;59.90
41220;DHT22;26951;47.338;9.196;2022-11-15T16:35:51;9.40;60.40
41220;DHT22;26951;47.338;9.196;2022-11-15T16:38:35;9.30;60.10
41220;DHT22;26951;47.338;9.196;2022-11-15T16:41:19;9.20;59.80
41220;DHT22;26951;47.338;9.196;2022-11-15T16:44:03;9.10;59.80
41220;DHT22;26951;47.338;9.196;2022-11-15T16:46:48;9.10;60.30
41220;DHT22;26951;47.338;9.196;2022-11-15T16:49:34;9.10;60.30
41220;DHT22;26951;47.338;9.196;2022-11-15T16:52:18;9.00;60.70
41220;DHT22;26951;47.338;9.196;2022-11-15T16:55:02;8.90;60.60
41220;DHT22;26951;47.338;9.196;2022-11-15T16:57:48;8.80;61.00
41220;DHT22;26951;47.338;9.196;2022-11-15T17:00:32;8.70;60.90
41220;DHT22;26951;47.338;9.196;2022-11-15T17:03:16;8.70;60.50
41220;DHT22;26951;47.338;9.196;2022-11-15T17:06:00;8.60;61.10
41220;DHT22;26951;47.338;9.196;2022-11-15T17:08:45;8.60;61.50
41220;DHT22;26951;47.338;9.196;2022-11-15T17:11:30;8.60;61.40
41220;DHT22;26951;47.338;9.196;2022-11-15T17:14:15;8.50;61.80
41220;DHT22;26951;47.338;9.196;2022-11-15T17:16:59;8.50;62.10
41220;DHT22;26951;47.338;9.196;2022-11-15T17:19:43;8.40;61.70
41220;DHT22;26951;47.338;9.196;2022-11-15T17:22:27;8.40;62.20
41220;DHT22;26951;47.338;9.196;2022-11-15T17:25:12;8.30;62.30
41220;DHT22;26951;47.338;9.196;2022-11-15T17:27:56;8.30;63.00
41220;DHT22;26951;47.338;9.196;2022-11-15T17:30:41;8.30;63.60
41220;DHT22;26951;47.338;9.196;2022-11-15T17:33:26;8.30;64.40
41220;DHT22;26951;47.338;9.196;2022-11-15T17:36:11;8.30;64.80
41220;DHT22;26951;47.338;9.196;2022-11-15T17:38:55;8.30;65.30
41220;DHT22;26951;47.338;9.196;2022-11-15T17:41:40;8.30;65.60
41220;DHT22;26951;47.338;9.196;2022-11-15T17:44:24;8.30;66.20
41220;DHT22;26951;47.338;9.196;2022-11-15T17:47:08;8.30;65.60
41220;DHT22;26951;47.338;9.196;2022-11-15T17:49:52;8.30;66.10
41220;DHT22;26951;47.338;9.196;2022-11-15T17:52:36;8.30;66.40
41220;DHT22;26951;47.338;9.196;2022-11-15T17:55:21;8.30;66.80
41220;DHT22;26951;47.338;9.196;2022-11-15T17:58:05;8.30;66.80
41220;DHT22;26951;47.338;9.196;2022-11-15T18:00:49;8.30;65.80
41220;DHT22;26951;47.338;9.196;2022-11-15T18:03:36;8.30;65.00
41220;DHT22;26951;47.338;9.196;2022-11-15T18:06:22;8.30;64.50
41220;DHT22;26951;47.338;9.196;2022-11-15T18:09:06;8.30;64.30
41220;DHT22;26951;47.338;9.196;2022-11-15T18:11:51;8.40;64.70
41220;DHT22;26951;47.338;9.196;2022-11-15T18:14:37;8.40;65.40
41220;DHT22;26951;47.338;9.196;2022-11-15T18:17:22;8.40;65.50
41220;DHT22;26951;47.338;9.196;2022-11-15T18:20:07;8.40;65.90
41220;DHT22;26951;47.338;9.196;2022-11-15T18:22:54;8.30;66.60
41220;DHT22;26951;47.338;9.196;2022-11-15T18:25:38;8.30;67.30
41220;DHT22;26951;47.338;9.196;2022-11-15T18:28:35;8.30;67.10
41220;DHT22;26951;47.338;9.196;2022-11-15T18:31:28;8.30;65.90
41220;DHT22;26951;47.338;9.196;2022-11-15T18:34:12;8.30;65.20
41220;DHT22;26951;47.338;9.196;2022-11-15T18:36:57;8.40;64.80
41220;DHT22;26951;47.338;9.196;2022-11-15T18:39:41;8.40;65.40
41220;DHT22;26951;47.338;9.196;2022-11-15T18:42:25;8.40;65.80
41220;DHT22;26951;47.338;9.196;2022-11-15T18:45:09;8.40;66.20
41220;DHT22;26951;47.338;9.196;2022-11-15T18:47:53;8.40;66.30
41220;DHT22;26951;47.338;9.196;2022-11-15T18:50:38;8.40;66.60
41220;DHT22;26951;47.338;9.196;2022-11-15T18:53:22;8.40;66.80
41220;DHT22;26951;47.338;9.196;2022-11-15T18:56:09;8.40;66.60
41220;DHT22;26951;47.338;9.196;2022-11-15T18:58:55;8.30;65.80
41220;DHT22;26951;47.338;9.196;2022-11-15T19:01:41;8.40;66.80
41220;DHT22;26951;47.338;9.196;2022-11-15T19:04:26;8.40;66.50
41220;DHT22;26951;47.338;9.196;2022-11-15T19:07:10;8.40;66.80
41220;DHT22;26951;47.338;9.196;2022-11-15T19:09:54;8.40;67.10
41220;DHT22;26951;47.338;9.196;2022-11-15T19:12:39;8.40;67.40
41220;DHT22;26951;47.338;9.196;2022-11-15T19:15:23;8.40;67.70
41220;DHT22;26951;47.338;9.196;2022-11-15T19:18:07;8.40;68.00
41220;DHT22;26951;47.338;9.196;2022-11-15T19:20:51;8.30;67.50